sensor_id;sensor_type;location;lat;lon;timestamp;temperature;humidity
31369;DHT22;18004;48.416;10.066;2022-08-23T00:00:42;16.20;85.20
31369;DHT22;18004;48.416;10.066;2022-08-23T00:03:08;16.20;84.40
31369;DHT22;18004;48.416;10.066;2022-08-23T00:05:34;16.10;84.90
31369;DHT22;18004;48.416;10.066;2022-08-23T00:08:00;16.00;86.50
31369;DHT22;18004;48.416;10.066;2022-08-23T00:10:26;16.00;86.90
31369;DHT22;18004;48.416;10.066;2022-08-23T00:12:52;16.00;87.90
31369;DHT22;18004;48.416;10.066;2022-08-23T00:15:19;15.90;85.90
31369;DHT22;18004;48.416;10.066;2022-08-23T00:17:46;15.80;88.80
31369;DHT22;18004;48.416;10.066;2022-08-23T00:20:14;15.70;89.60
31369;DHT22;18004;48.416;10.066;2022-08-23T00:22:40;15.70;87.30
31369;DHT22;18004;48.416;10.066;2022-08-23T00:25:08;15.70;88.10
31369;DHT22;18004;48.416;10.066;2022-08-23T00:27:34;15.60;89.20
31369;DHT22;18004;48.416;10.066;2022-08-23T00:30:01;15.60;87.60
31369;DHT22;18004;48.416;10.066;2022-08-23T00:32:30;15.70;87.40
31369;DHT22;18004;48.416;10.066;2022-08-23T00:34:57;15.70;87.00
31369;DHT22;18004;48.416;10.066;2022-08-23T00:37:24;15.70;87.00
31369;DHT22;18004;48.416;10.066;2022-08-23T00:39:50;15.60;86.40
31369;DHT22;18004;48.416;10.066;2022-08-23T00:42:53;15.60;89.10
31369;DHT22;18004;48.416;10.066;2022-08-23T00:46:06;15.50;89.50
31369;DHT22;18004;48.416;10.066;2022-08-23T00:48:54;15.50;89.80
31369;DHT22;18004;48.416;10.066;2022-08-23T00:51:29;15.40;88.70
31369;DHT22;18004;48.416;10.066;2022-08-23T00:53:58;15.40;88.40
31369;DHT22;18004;48.416;10.066;2022-08-23T00:56:27;15.40;87.20
31369;DHT22;18004;48.416;10.066;2022-08-23T00:58:55;15.40;87.40
31369;DHT22;18004;48.416;10.066;2022-08-23T01:01:21;15.40;89.30
31369;DHT22;18004;48.416;10.066;2022-08-23T01:03:50;15.40;88.50
31369;DHT22;18004;48.416;10.066;2022-08-23T01:06:37;15.30;89.90
31369;DHT22;18004;48.416;10.066;2022-08-23T01:09:11;15.30;90.80
31369;DHT22;18004;48.416;10.066;2022-08-23T01:11:39;15.30;90.60
31369;DHT22;18004;48.416;10.066;2022-08-23T01:14:14;15.20;90.40
31369;DHT22;18004;48.416;10.066;2022-08-23T01:16:45;15.20;90.50
31369;DHT22;18004;48.416;10.066;2022-08-23T01:19:33;15.20;90.40
31369;DHT22;18004;48.416;10.066;2022-08-23T01:22:20;15.20;90.60
31369;DHT22;18004;48.416;10.066;2022-08-23T01:24:49;15.20;90.00
31369;DHT22;18004;48.416;10.066;2022-08-23T01:27:15;15.10;90.30
31369;DHT22;18004;48.416;10.066;2022-08-23T01:29:41;15.10;90.30
31369;DHT22;18004;48.416;10.066;2022-08-23T01:32:08;15.10;90.30
31369;DHT22;18004;48.416;10.066;2022-08-23T01:34:34;15.10;90.50
31369;DHT22;18004;48.416;10.066;2022-08-23T01:37:04;15.10;90.80
31369;DHT22;18004;48.416;10.066;2022-08-23T01:39:30;15.00;90.70
31369;DHT22;18004;48.416;10.066;2022-08-23T01:41:56;14.90;90.90
31369;DHT22;18004;48.416;10.066;2022-08-23T01:44:22;14.90;91.50
31369;DHT22;18004;48.416;10.066;2022-08-23T01:46:48;14.80;92.10
31369;DHT22;18004;48.416;10.066;2022-08-23T01:49:14;14.70;92.00
31369;DHT22;18004;48.416;10.066;2022-08-23T01:51:41;14.70;93.10
31369;DHT22;18004;48.416;10.066;2022-08-23T01:54:07;14.60;93.10
31369;DHT22;18004;48.416;10.066;2022-08-23T01:56:34;14.60;92.70
31369;DHT22;18004;48.416;10.066;2022-08-23T01:59:00;14.60;92.40
31369;DHT22;18004;48.416;10.066;2022-08-23T02:01:25;14.60;92.50
31369;DHT22;18004;48.416;10.066;2022-08-23T02:03:51;14.60;92.40
31369;DHT22;18004;48.416;10.066;2022-08-23T02:06:17;14.60;93.00
31369;DHT22;18004;48.416;10.066;2022-08-23T02:08:43;14.50;93.20
31369;DHT22;18004;48.416;10.066;2022-08-23T02:11:34;14.50;93.50
31369;DHT22;18004;48.416;10.066;2022-08-23T02:14:06;14.40;94.00
31369;DHT22;18004;48.416;10.066;2022-08-23T02:16:36;14.40;93.80
31369;DHT22;18004;48.416;10.066;2022-08-23T02:19:12;14.40;94.60
31369;DHT22;18004;48.416;10.066;2022-08-23T02:21:39;14.40;94.60
31369;DHT22;18004;48.416;10.066;2022-08-23T02:24:12;14.30;94.40
31369;DHT22;18004;48.416;10.066;2022-08-23T02:26:40;14.30;94.60
31369;DHT22;18004;48.416;10.066;2022-08-23T02:29:06;14.30;95.10
31369;DHT22;18004;48.416;10.066;2022-08-23T02:31:33;14.20;95.40
31369;DHT22;18004;48.416;10.066;2022-08-23T02:33:59;14.20;95.40
31369;DHT22;18004;48.416;10.066;2022-08-23T02:36:26;14.20;95.30
31369;DHT22;18004;48.416;10.066;2022-08-23T02:38:53;14.20;95.50
31369;DHT22;18004;48.416;10.066;2022-08-23T02:41:18;14.20;95.80
31369;DHT22;18004;48.416;10.066;2022-08-23T02:43:44;14.20;95.90
31369;DHT22;18004;48.416;10.066;2022-08-23T02:46:10;14.20;95.80
31369;DHT22;18004;48.416;10.066;2022-08-23T02:48:36;14.20;96.00
31369;DHT22;18004;48.416;10.066;2022-08-23T02:51:04;14.20;96.20
31369;DHT22;18004;48.416;10.066;2022-08-23T02:53:31;14.10;96.60
31369;DHT22;18004;48.416;10.066;2022-08-23T02:55:57;14.10;96.00
31369;DHT22;18004;48.416;10.066;2022-08-23T02:58:23;14.10;95.20
31369;DHT22;18004;48.416;10.066;2022-08-23T03:00:50;14.10;94.80
31369;DHT22;18004;48.416;10.066;2022-08-23T03:03:17;14.00;95.20
31369;DHT22;18004;48.416;10.066;2022-08-23T03:05:44;14.00;95.60
31369;DHT22;18004;48.416;10.066;2022-08-23T03:08:13;13.90;95.60
31369;DHT22;18004;48.416;10.066;2022-08-23T03:10:44;13.90;95.00
31369;DHT22;18004;48.416;10.066;2022-08-23T03:13:10;13.90;94.50
31369;DHT22;18004;48.416;10.066;2022-08-23T03:15:37;13.90;94.50
31369;DHT22;18004;48.416;10.066;2022-08-23T03:18:03;13.80;94.40
31369;DHT22;18004;48.416;10.066;2022-08-23T03:20:29;13.80;94.40
31369;DHT22;18004;48.416;10.066;2022-08-23T03:22:55;13.80;94.40
31369;DHT22;18004;48.416;10.066;2022-08-23T03:25:22;13.80;94.40
31369;DHT22;18004;48.416;10.066;2022-08-23T03:27:48;13.80;94.40
31369;DHT22;18004;48.416;10.066;2022-08-23T03:30:13;13.80;94.40
31369;DHT22;18004;48.416;10.066;2022-08-23T03:32:39;13.80;94.40
31369;DHT22;18004;48.416;10.066;2022-08-23T03:35:06;13.70;94.50
31369;DHT22;18004;48.416;10.066;2022-08-23T03:37:32;13.70;94.90
31369;DHT22;18004;48.416;10.066;2022-08-23T03:39:58;13.70;94.70
31369;DHT22;18004;48.416;10.066;2022-08-23T03:42:24;13.60;95.10
31369;DHT22;18004;48.416;10.066;2022-08-23T03:44:50;13.60;95.80
31369;DHT22;18004;48.416;10.066;2022-08-23T03:47:16;13.60;95.90
31369;DHT22;18004;48.416;10.066;2022-08-23T03:49:42;13.60;96.40
31369;DHT22;18004;48.416;10.066;2022-08-23T03:52:08;13.50;96.00
31369;DHT22;18004;48.416;10.066;2022-08-23T03:54:34;13.50;95.80
31369;DHT22;18004;48.416;10.066;2022-08-23T03:57:04;13.50;95.70
31369;DHT22;18004;48.416;10.066;2022-08-23T03:59:33;13.50;95.40
31369;DHT22;18004;48.416;10.066;2022-08-23T04:02:00;13.50;95.50
31369;DHT22;18004;48.416;10.066;2022-08-23T04:04:25;13.50;95.50
31369;DHT22;18004;48.416;10.066;2022-08-23T04:06:52;13.50;95.90
31369;DHT22;18004;48.416;10.066;2022-08-23T04:09:18;13.50;95.10
31369;DHT22;18004;48.416;10.066;2022-08-23T04:11:44;13.50;95.00
31369;DHT22;18004;48.416;10.066;2022-08-23T04:14:10;13.40;95.30
31369;DHT22;18004;48.416;10.066;2022-08-23T04:16:37;13.40;95.20
31369;DHT22;18004;48.416;10.066;2022-08-23T04:19:09;13.40;95.80
31369;DHT22;18004;48.416;10.066;2022-08-23T04:21:38;13.40;95.70
31369;DHT22;18004;48.416;10.066;2022-08-23T04:24:06;13.40;95.70
31369;DHT22;18004;48.416;10.066;2022-08-23T04:26:31;13.30;95.80
31369;DHT22;18004;48.416;10.066;2022-08-23T04:28:59;13.30;95.90
31369;DHT22;18004;48.416;10.066;2022-08-23T04:31:25;13.20;95.70
31369;DHT22;18004;48.416;10.066;2022-08-23T04:33:52;13.20;95.70
31369;DHT22;18004;48.416;10.066;2022-08-23T04:36:19;13.20;95.80
31369;DHT22;18004;48.416;10.066;2022-08-23T04:38:45;13.20;95.80
31369;DHT22;18004;48.416;10.066;2022-08-23T04:41:10;13.10;95.50
31369;DHT22;18004;48.416;10.066;2022-08-23T04:43:55;13.10;95.60
31369;DHT22;18004;48.416;10.066;2022-08-23T04:46:21;13.20;95.60
31369;DHT22;18004;48.416;10.066;2022-08-23T04:48:47;13.10;95.80
31369;DHT22;18004;48.416;10.066;2022-08-23T04:51:13;13.20;96.10
31369;DHT22;18004;48.416;10.066;2022-08-23T04:53:40;13.10;96.30
31369;DHT22;18004;48.416;10.066;2022-08-23T04:56:06;13.10;96.50
31369;DHT22;18004;48.416;10.066;2022-08-23T04:58:34;13.10;96.70
31369;DHT22;18004;48.416;10.066;2022-08-23T05:01:03;13.10;96.70
31369;DHT22;18004;48.416;10.066;2022-08-23T05:03:30;13.10;96.60
31369;DHT22;18004;48.416;10.066;2022-08-23T05:05:56;13.10;96.80
31369;DHT22;18004;48.416;10.066;2022-08-23T05:08:23;13.10;97.10
31369;DHT22;18004;48.416;10.066;2022-08-23T05:10:49;13.20;97.70
31369;DHT22;18004;48.416;10.066;2022-08-23T05:13:16;13.20;98.20
31369;DHT22;18004;48.416;10.066;2022-08-23T05:15:42;13.20;98.30
31369;DHT22;18004;48.416;10.066;2022-08-23T05:18:09;13.20;98.70
31369;DHT22;18004;48.416;10.066;2022-08-23T05:20:35;13.30;98.80
31369;DHT22;18004;48.416;10.066;2022-08-23T05:23:01;13.30;99.00
31369;DHT22;18004;48.416;10.066;2022-08-23T05:25:28;13.30;99.10
31369;DHT22;18004;48.416;10.066;2022-08-23T05:28:15;13.40;99.20
31369;DHT22;18004;48.416;10.066;2022-08-23T05:30:41;13.40;99.20
31369;DHT22;18004;48.416;10.066;2022-08-23T05:33:07;13.50;99.60
31369;DHT22;18004;48.416;10.066;2022-08-23T05:35:33;13.50;99.60
31369;DHT22;18004;48.416;10.066;2022-08-23T05:37:59;13.50;99.60
31369;DHT22;18004;48.416;10.066;2022-08-23T05:40:26;13.60;99.40
31369;DHT22;18004;48.416;10.066;2022-08-23T05:42:52;13.70;99.60
31369;DHT22;18004;48.416;10.066;2022-08-23T05:45:18;13.70;99.70
31369;DHT22;18004;48.416;10.066;2022-08-23T05:47:44;13.70;99.70
31369;DHT22;18004;48.416;10.066;2022-08-23T05:50:11;13.70;99.70
31369;DHT22;18004;48.416;10.066;2022-08-23T05:52:38;13.80;99.70
31369;DHT22;18004;48.416;10.066;2022-08-23T05:55:05;13.90;99.40
31369;DHT22;18004;48.416;10.066;2022-08-23T05:57:34;13.90;99.30
31369;DHT22;18004;48.416;10.066;2022-08-23T05:59:59;13.90;99.40
31369;DHT22;18004;48.416;10.066;2022-08-23T06:02:25;14.00;99.30
31369;DHT22;18004;48.416;10.066;2022-08-23T06:04:51;14.00;99.10
31369;DHT22;18004;48.416;10.066;2022-08-23T06:07:19;14.10;98.80
31369;DHT22;18004;48.416;10.066;2022-08-23T06:09:45;14.10;98.40
31369;DHT22;18004;48.416;10.066;2022-08-23T06:12:10;14.10;98.30
31369;DHT22;18004;48.416;10.066;2022-08-23T06:14:36;14.20;98.20
31369;DHT22;18004;48.416;10.066;2022-08-23T06:17:03;14.20;98.40
31369;DHT22;18004;48.416;10.066;2022-08-23T06:19:30;14.30;98.40
31369;DHT22;18004;48.416;10.066;2022-08-23T06:21:55;14.40;97.90
31369;DHT22;18004;48.416;10.066;2022-08-23T06:24:21;14.40;97.20
31369;DHT22;18004;48.416;10.066;2022-08-23T06:26:47;14.50;97.80
31369;DHT22;18004;48.416;10.066;2022-08-23T06:29:16;14.50;97.60
31369;DHT22;18004;48.416;10.066;2022-08-23T06:31:46;14.60;97.60
31369;DHT22;18004;48.416;10.066;2022-08-23T06:36:52;14.70;97.30
31369;DHT22;18004;48.416;10.066;2022-08-23T06:39:20;14.80;97.50
31369;DHT22;18004;48.416;10.066;2022-08-23T06:41:47;14.80;97.90
31369;DHT22;18004;48.416;10.066;2022-08-23T06:44:17;14.90;97.80
31369;DHT22;18004;48.416;10.066;2022-08-23T06:46:44;14.90;97.40
31369;DHT22;18004;48.416;10.066;2022-08-23T06:49:11;15.00;97.50
31369;DHT22;18004;48.416;10.066;2022-08-23T06:51:44;15.00;95.90
31369;DHT22;18004;48.416;10.066;2022-08-23T06:54:11;15.20;96.60
31369;DHT22;18004;48.416;10.066;2022-08-23T06:56:39;15.20;97.00
31369;DHT22;18004;48.416;10.066;2022-08-23T06:59:06;15.30;96.70
31369;DHT22;18004;48.416;10.066;2022-08-23T07:01:41;15.40;96.30
31369;DHT22;18004;48.416;10.066;2022-08-23T07:04:09;15.50;95.70
31369;DHT22;18004;48.416;10.066;2022-08-23T07:06:36;15.70;95.10
31369;DHT22;18004;48.416;10.066;2022-08-23T07:09:04;15.90;95.10
31369;DHT22;18004;48.416;10.066;2022-08-23T07:11:30;16.00;94.10
31369;DHT22;18004;48.416;10.066;2022-08-23T07:14:02;16.20;92.80
31369;DHT22;18004;48.416;10.066;2022-08-23T07:16:36;16.50;90.70
31369;DHT22;18004;48.416;10.066;2022-08-23T07:19:03;16.50;87.60
31369;DHT22;18004;48.416;10.066;2022-08-23T07:21:29;16.60;90.10
31369;DHT22;18004;48.416;10.066;2022-08-23T07:23:55;16.90;86.70
31369;DHT22;18004;48.416;10.066;2022-08-23T07:26:21;17.20;84.10
31369;DHT22;18004;48.416;10.066;2022-08-23T07:28:48;17.50;72.90
31369;DHT22;18004;48.416;10.066;2022-08-23T07:31:18;17.80;71.90
31369;DHT22;18004;48.416;10.066;2022-08-23T07:33:45;18.00;67.50
31369;DHT22;18004;48.416;10.066;2022-08-23T07:36:14;18.10;68.00
31369;DHT22;18004;48.416;10.066;2022-08-23T07:38:42;18.40;68.90
31369;DHT22;18004;48.416;10.066;2022-08-23T07:41:08;18.60;64.20
31369;DHT22;18004;48.416;10.066;2022-08-23T07:43:38;18.70;64.30
31369;DHT22;18004;48.416;10.066;2022-08-23T07:46:04;18.70;61.30
31369;DHT22;18004;48.416;10.066;2022-08-23T07:48:31;19.00;61.20
31369;DHT22;18004;48.416;10.066;2022-08-23T07:50:59;19.10;54.50
31369;DHT22;18004;48.416;10.066;2022-08-23T07:53:26;19.20;57.70
31369;DHT22;18004;48.416;10.066;2022-08-23T07:55:52;19.40;55.10
31369;DHT22;18004;48.416;10.066;2022-08-23T07:58:20;19.70;52.70
31369;DHT22;18004;48.416;10.066;2022-08-23T08:00:46;20.00;55.10
31369;DHT22;18004;48.416;10.066;2022-08-23T08:03:13;20.40;50.80
31369;DHT22;18004;48.416;10.066;2022-08-23T08:05:40;20.50;45.80
31369;DHT22;18004;48.416;10.066;2022-08-23T08:08:06;20.70;44.00
31369;DHT22;18004;48.416;10.066;2022-08-23T08:10:36;20.90;41.00
31369;DHT22;18004;48.416;10.066;2022-08-23T08:13:03;21.20;37.10
31369;DHT22;18004;48.416;10.066;2022-08-23T08:15:30;21.20;34.20
31369;DHT22;18004;48.416;10.066;2022-08-23T08:17:56;21.50;38.00
31369;DHT22;18004;48.416;10.066;2022-08-23T08:20:22;21.70;32.40
31369;DHT22;18004;48.416;10.066;2022-08-23T08:22:48;21.30;32.00
31369;DHT22;18004;48.416;10.066;2022-08-23T08:25:15;21.40;36.10
31369;DHT22;18004;48.416;10.066;2022-08-23T08:27:41;21.60;31.80
31369;DHT22;18004;48.416;10.066;2022-08-23T08:30:09;21.30;31.00
31369;DHT22;18004;48.416;10.066;2022-08-23T08:32:35;20.60;33.90
31369;DHT22;18004;48.416;10.066;2022-08-23T08:35:02;20.60;36.60
31369;DHT22;18004;48.416;10.066;2022-08-23T08:37:28;21.00;38.80
31369;DHT22;18004;48.416;10.066;2022-08-23T08:39:57;21.80;33.20
31369;DHT22;18004;48.416;10.066;2022-08-23T08:45:28;22.50;28.00
31369;DHT22;18004;48.416;10.066;2022-08-23T08:48:07;22.80;24.70
31369;DHT22;18004;48.416;10.066;2022-08-23T08:50:38;22.90;24.30
31369;DHT22;18004;48.416;10.066;2022-08-23T08:53:56;23.00;20.00
31369;DHT22;18004;48.416;10.066;2022-08-23T08:56:00;23.20;22.40
31369;DHT22;18004;48.416;10.066;2022-08-23T08:58:35;23.40;20.40
31369;DHT22;18004;48.416;10.066;2022-08-23T09:01:05;23.60;18.20
31369;DHT22;18004;48.416;10.066;2022-08-23T09:03:33;23.70;19.10
31369;DHT22;18004;48.416;10.066;2022-08-23T09:12:32;23.80;16.00
31369;DHT22;18004;48.416;10.066;2022-08-23T09:20:15;23.90;17.60
31369;DHT22;18004;48.416;10.066;2022-08-23T09:22:50;24.40;15.30
31369;DHT22;18004;48.416;10.066;2022-08-23T09:25:17;24.60;14.20
31369;DHT22;18004;48.416;10.066;2022-08-23T09:27:43;24.70;12.40
31369;DHT22;18004;48.416;10.066;2022-08-23T09:30:12;24.90;11.70
31369;DHT22;18004;48.416;10.066;2022-08-23T09:32:41;24.60;11.40
31369;DHT22;18004;48.416;10.066;2022-08-23T09:38:05;24.10;13.00
31369;DHT22;18004;48.416;10.066;2022-08-23T09:40:49;24.30;13.30
31369;DHT22;18004;48.416;10.066;2022-08-23T09:43:21;24.20;13.80
31369;DHT22;18004;48.416;10.066;2022-08-23T09:48:36;24.90;13.00
31369;DHT22;18004;48.416;10.066;2022-08-23T09:54:18;25.80;9.30
31369;DHT22;18004;48.416;10.066;2022-08-23T09:56:51;26.10;9.20
31369;DHT22;18004;48.416;10.066;2022-08-23T09:59:42;26.30;7.40
31369;DHT22;18004;48.416;10.066;2022-08-23T10:02:32;26.30;7.10
31369;DHT22;18004;48.416;10.066;2022-08-23T10:05:28;26.70;6.60
31369;DHT22;18004;48.416;10.066;2022-08-23T10:07:59;26.80;2.90
31369;DHT22;18004;48.416;10.066;2022-08-23T10:10:39;26.70;5.10
31369;DHT22;18004;48.416;10.066;2022-08-23T10:13:12;27.00;1.60
31369;DHT22;18004;48.416;10.066;2022-08-23T10:21:10;26.50;1.00
31369;DHT22;18004;48.416;10.066;2022-08-23T10:26:26;26.50;1.00
31369;DHT22;18004;48.416;10.066;2022-08-23T10:29:15;27.00;1.00
31369;DHT22;18004;48.416;10.066;2022-08-23T10:46:29;26.30;1.00
31369;DHT22;18004;48.416;10.066;2022-08-23T10:49:00;26.20;1.00
31369;DHT22;18004;48.416;10.066;2022-08-23T10:51:31;26.20;1.00
31369;DHT22;18004;48.416;10.066;2022-08-23T10:54:00;26.60;1.00
31369;DHT22;18004;48.416;10.066;2022-08-23T10:56:28;27.10;1.00
31369;DHT22;18004;48.416;10.066;2022-08-23T10:58:57;27.60;1.00
31369;DHT22;18004;48.416;10.066;2022-08-23T11:01:30;27.40;1.00
31369;DHT22;18004;48.416;10.066;2022-08-23T11:04:04;27.80;1.00
31369;DHT22;18004;48.416;10.066;2022-08-23T11:14:40;26.40;1.00
31369;DHT22;18004;48.416;10.066;2022-08-23T11:17:23;26.70;1.00
31369;DHT22;18004;48.416;10.066;2022-08-23T11:19:54;27.40;1.00
31369;DHT22;18004;48.416;10.066;2022-08-23T11:25:00;26.50;1.00
31369;DHT22;18004;48.416;10.066;2022-08-23T11:29:55;26.60;1.00
31369;DHT22;18004;48.416;10.066;2022-08-23T11:32:31;26.50;1.00
31369;DHT22;18004;48.416;10.066;2022-08-23T11:35:26;26.60;1.00
31369;DHT22;18004;48.416;10.066;2022-08-23T11:38:01;26.90;1.00
31369;DHT22;18004;48.416;10.066;2022-08-23T11:40:54;27.70;1.00
31369;DHT22;18004;48.416;10.066;2022-08-23T11:45:52;28.20;1.00
31369;DHT22;18004;48.416;10.066;2022-08-23T11:59:24;27.30;1.00
31369;DHT22;18004;48.416;10.066;2022-08-23T12:01:50;27.90;1.00
31369;DHT22;18004;48.416;10.066;2022-08-23T12:06:54;28.50;1.00
31369;DHT22;18004;48.416;10.066;2022-08-23T12:20:25;27.70;1.00
31369;DHT22;18004;48.416;10.066;2022-08-23T12:25:27;28.00;1.00
31369;DHT22;18004;48.416;10.066;2022-08-23T12:28:16;28.60;1.00
31369;DHT22;18004;48.416;10.066;2022-08-23T12:31:15;28.80;1.00
31369;DHT22;18004;48.416;10.066;2022-08-23T12:34:11;28.20;1.00
31369;DHT22;18004;48.416;10.066;2022-08-23T12:39:32;28.20;1.00
31369;DHT22;18004;48.416;10.066;2022-08-23T12:42:10;28.70;1.00
31369;DHT22;18004;48.416;10.066;2022-08-23T12:44:43;28.60;1.00
31369;DHT22;18004;48.416;10.066;2022-08-23T12:47:19;28.90;1.00
31369;DHT22;18004;48.416;10.066;2022-08-23T12:52:24;27.30;1.00
31369;DHT22;18004;48.416;10.066;2022-08-23T12:54:50;27.40;1.00
31369;DHT22;18004;48.416;10.066;2022-08-23T12:57:40;27.50;1.00
31369;DHT22;18004;48.416;10.066;2022-08-23T13:00:20;27.30;1.00
31369;DHT22;18004;48.416;10.066;2022-08-23T13:03:33;28.10;1.00
31369;DHT22;18004;48.416;10.066;2022-08-23T13:05:59;28.60;1.00
31369;DHT22;18004;48.416;10.066;2022-08-23T13:11:04;29.20;1.00
31369;DHT22;18004;48.416;10.066;2022-08-23T13:13:31;29.40;1.00
31369;DHT22;18004;48.416;10.066;2022-08-23T13:16:02;29.10;1.00
31369;DHT22;18004;48.416;10.066;2022-08-23T13:18:47;29.40;1.00
31369;DHT22;18004;48.416;10.066;2022-08-23T13:24:00;29.60;1.00
31369;DHT22;18004;48.416;10.066;2022-08-23T13:26:40;28.90;1.00
31369;DHT22;18004;48.416;10.066;2022-08-23T13:29:21;28.70;1.00
31369;DHT22;18004;48.416;10.066;2022-08-23T13:32:04;28.10;1.00
31369;DHT22;18004;48.416;10.066;2022-08-23T13:36:58;29.10;1.00
31369;DHT22;18004;48.416;10.066;2022-08-23T13:39:25;28.70;1.00
31369;DHT22;18004;48.416;10.066;2022-08-23T13:41:51;28.30;1.00
31369;DHT22;18004;48.416;10.066;2022-08-23T13:44:18;28.20;1.00
31369;DHT22;18004;48.416;10.066;2022-08-23T13:46:46;28.20;1.00
31369;DHT22;18004;48.416;10.066;2022-08-23T13:49:16;28.50;1.00
31369;DHT22;18004;48.416;10.066;2022-08-23T13:54:24;28.70;1.00
31369;DHT22;18004;48.416;10.066;2022-08-23T13:56:52;28.50;1.00
31369;DHT22;18004;48.416;10.066;2022-08-23T14:01:44;28.60;1.00
31369;DHT22;18004;48.416;10.066;2022-08-23T14:04:09;28.40;1.00
31369;DHT22;18004;48.416;10.066;2022-08-23T14:06:35;29.00;1.00
31369;DHT22;18004;48.416;10.066;2022-08-23T14:09:01;29.20;1.00
31369;DHT22;18004;48.416;10.066;2022-08-23T14:11:27;29.50;1.00
31369;DHT22;18004;48.416;10.066;2022-08-23T14:13:53;29.60;1.00
31369;DHT22;18004;48.416;10.066;2022-08-23T14:16:23;29.50;1.00
31369;DHT22;18004;48.416;10.066;2022-08-23T14:18:49;29.70;1.00
31369;DHT22;18004;48.416;10.066;2022-08-23T14:21:14;29.50;1.00
31369;DHT22;18004;48.416;10.066;2022-08-23T14:23:40;29.60;1.00
31369;DHT22;18004;48.416;10.066;2022-08-23T14:26:05;29.60;1.00
31369;DHT22;18004;48.416;10.066;2022-08-23T14:28:32;29.70;1.00
31369;DHT22;18004;48.416;10.066;2022-08-23T14:30:57;29.40;1.00
31369;DHT22;18004;48.416;10.066;2022-08-23T14:33:23;29.40;1.00
31369;DHT22;18004;48.416;10.066;2022-08-23T14:35:49;29.20;1.00
31369;DHT22;18004;48.416;10.066;2022-08-23T14:38:16;28.90;1.00
31369;DHT22;18004;48.416;10.066;2022-08-23T14:40:45;29.30;1.00
31369;DHT22;18004;48.416;10.066;2022-08-23T14:43:12;29.30;1.00
31369;DHT22;18004;48.416;10.066;2022-08-23T14:45:38;29.50;1.00
31369;DHT22;18004;48.416;10.066;2022-08-23T14:48:04;29.60;1.00
31369;DHT22;18004;48.416;10.066;2022-08-23T14:50:30;29.60;1.00
31369;DHT22;18004;48.416;10.066;2022-08-23T14:52:56;29.70;1.00
31369;DHT22;18004;48.416;10.066;2022-08-23T14:55:21;29.60;1.00
31369;DHT22;18004;48.416;10.066;2022-08-23T14:57:47;28.90;1.00
31369;DHT22;18004;48.416;10.066;2022-08-23T15:00:16;28.20;1.00
31369;DHT22;18004;48.416;10.066;2022-08-23T15:02:42;28.30;1.00
31369;DHT22;18004;48.416;10.066;2022-08-23T15:05:09;28.20;1.00
31369;DHT22;18004;48.416;10.066;2022-08-23T15:07:36;28.10;1.00
31369;DHT22;18004;48.416;10.066;2022-08-23T15:10:02;28.10;1.00
31369;DHT22;18004;48.416;10.066;2022-08-23T15:12:28;28.20;1.00
31369;DHT22;18004;48.416;10.066;2022-08-23T15:14:54;28.70;1.00
31369;DHT22;18004;48.416;10.066;2022-08-23T15:17:20;28.40;1.00
31369;DHT22;18004;48.416;10.066;2022-08-23T15:19:45;28.10;1.00
31369;DHT22;18004;48.416;10.066;2022-08-23T15:22:11;28.30;1.00
31369;DHT22;18004;48.416;10.066;2022-08-23T15:24:37;28.50;1.00
31369;DHT22;18004;48.416;10.066;2022-08-23T15:27:03;28.40;1.00
31369;DHT22;18004;48.416;10.066;2022-08-23T15:29:29;28.10;1.00
31369;DHT22;18004;48.416;10.066;2022-08-23T15:31:55;27.50;1.00
31369;DHT22;18004;48.416;10.066;2022-08-23T15:34:21;27.70;1.00
31369;DHT22;18004;48.416;10.066;2022-08-23T15:36:46;28.00;1.00
31369;DHT22;18004;48.416;10.066;2022-08-23T15:39:12;28.30;1.00
31369;DHT22;18004;48.416;10.066;2022-08-23T15:41:38;28.10;1.00
31369;DHT22;18004;48.416;10.066;2022-08-23T15:44:04;28.10;1.00
31369;DHT22;18004;48.416;10.066;2022-08-23T15:46:29;27.80;1.00
31369;DHT22;18004;48.416;10.066;2022-08-23T15:48:59;28.10;1.00
31369;DHT22;18004;48.416;10.066;2022-08-23T15:51:26;28.10;1.00
31369;DHT22;18004;48.416;10.066;2022-08-23T15:53:52;28.00;1.00
31369;DHT22;18004;48.416;10.066;2022-08-23T15:56:20;28.00;1.00
31369;DHT22;18004;48.416;10.066;2022-08-23T15:58:46;27.90;1.00
31369;DHT22;18004;48.416;10.066;2022-08-23T16:01:12;27.80;1.00
31369;DHT22;18004;48.416;10.066;2022-08-23T16:03:38;27.70;1.00
31369;DHT22;18004;48.416;10.066;2022-08-23T16:06:07;27.20;1.00
31369;DHT22;18004;48.416;10.066;2022-08-23T16:08:33;27.40;1.00
31369;DHT22;18004;48.416;10.066;2022-08-23T16:11:00;27.60;1.00
31369;DHT22;18004;48.416;10.066;2022-08-23T16:13:29;27.20;1.00
31369;DHT22;18004;48.416;10.066;2022-08-23T16:15:54;27.20;1.00
31369;DHT22;18004;48.416;10.066;2022-08-23T16:18:21;27.50;1.00
31369;DHT22;18004;48.416;10.066;2022-08-23T16:20:47;27.50;1.00
31369;DHT22;18004;48.416;10.066;2022-08-23T16:23:12;27.60;1.00
31369;DHT22;18004;48.416;10.066;2022-08-23T16:25:38;27.70;1.00
31369;DHT22;18004;48.416;10.066;2022-08-23T16:28:04;27.30;1.00
31369;DHT22;18004;48.416;10.066;2022-08-23T16:30:29;27.20;1.00
31369;DHT22;18004;48.416;10.066;2022-08-23T16:32:55;27.30;1.00
31369;DHT22;18004;48.416;10.066;2022-08-23T16:35:21;27.40;1.00
31369;DHT22;18004;48.416;10.066;2022-08-23T16:37:47;27.10;1.00
31369;DHT22;18004;48.416;10.066;2022-08-23T16:40:12;26.90;1.00
31369;DHT22;18004;48.416;10.066;2022-08-23T16:42:39;26.90;1.00
31369;DHT22;18004;48.416;10.066;2022-08-23T16:45:05;26.70;1.00
31369;DHT22;18004;48.416;10.066;2022-08-23T16:47:31;26.50;1.00
31369;DHT22;18004;48.416;10.066;2022-08-23T16:49:57;26.50;1.00
31369;DHT22;18004;48.416;10.066;2022-08-23T16:52:23;26.40;1.00
31369;DHT22;18004;48.416;10.066;2022-08-23T16:54:51;26.40;1.00
31369;DHT22;18004;48.416;10.066;2022-08-23T16:57:17;26.50;1.00
31369;DHT22;18004;48.416;10.066;2022-08-23T16:59:43;26.50;1.00
31369;DHT22;18004;48.416;10.066;2022-08-23T17:02:20;26.50;1.00
31369;DHT22;18004;48.416;10.066;2022-08-23T17:04:47;26.40;1.00
31369;DHT22;18004;48.416;10.066;2022-08-23T17:07:12;26.30;1.00
31369;DHT22;18004;48.416;10.066;2022-08-23T17:09:39;26.20;1.00
31369;DHT22;18004;48.416;10.066;2022-08-23T17:12:04;26.30;1.00
31369;DHT22;18004;48.416;10.066;2022-08-23T17:14:30;26.30;1.00
31369;DHT22;18004;48.416;10.066;2022-08-23T17:16:56;26.20;1.00
31369;DHT22;18004;48.416;10.066;2022-08-23T17:19:24;26.20;1.00
31369;DHT22;18004;48.416;10.066;2022-08-23T17:21:49;26.10;1.00
31369;DHT22;18004;48.416;10.066;2022-08-23T17:24:15;26.10;1.00